Time;durP1;ratioP1;P1;durP2;ratioP2;P2;SDS_P1;SDS_P2;PMS_P1;PMS_P2;Temp;Humidity;BMP_temperature;BMP_pressure;BME280_temperature;BME280_humidity;BME280_pressure;Samples;Min_cycle;Max_cycle;Signal;HPM_P1;HPM_P2
2023/01/30 00:00:24;;;;;;;6.35;4.13;;;;;;;;;;5052481;28;20492;-58
2023/01/30 00:02:50;;;;;;;6.57;4.25;;;;;;;;;;5052768;28;20108;-58
2023/01/30 00:05:16;;;;;;;8.18;3.95;;;;;;;;;;5052321;28;20110;-57
2023/01/30 00:07:42;;;;;;;6.13;3.88;;;;;;;;;;5052830;28;20485;-57
2023/01/30 00:10:09;;;;;;;6.05;3.72;;;;;;;;;;5052543;28;20033;-57
2023/01/30 00:12:35;;;;;;;5.55;3.30;;;;;;;;;;5052358;28;20394;-58
2023/01/30 00:15:01;;;;;;;5.13;3.75;;;;;;;;;;5052418;28;20051;-58
2023/01/30 00:17:27;;;;;;;6.85;3.65;;;;;;;;;;5052246;28;20063;-58
2023/01/30 00:19:52;;;;;;;6.32;4.03;;;;;;;;;;5052437;28;20017;-58
2023/01/30 00:22:18;;;;;;;6.65;3.80;;;;;;;;;;5052083;28;20466;-58
2023/01/30 00:24:44;;;;;;;5.85;3.20;;;;;;;;;;5052545;28;20037;-58
2023/01/30 00:27:10;;;;;;;5.53;3.40;;;;;;;;;;5052604;28;20021;-58
2023/01/30 00:29:36;;;;;;;6.30;3.47;;;;;;;;;;5052209;28;20028;-58
2023/01/30 00:32:02;;;;;;;6.07;3.53;;;;;;;;;;5052077;28;20017;-57
2023/01/30 00:34:28;;;;;;;4.40;3.03;;;;;;;;;;5051949;28;20086;-58
2023/01/30 00:36:54;;;;;;;5.07;3.40;;;;;;;;;;5052242;28;20036;-58
2023/01/30 00:39:20;;;;;;;3.50;2.95;;;;;;;;;;5051973;28;20104;-58
2023/01/30 00:47:16;;;;;;;5.55;3.05;;;;;;;;;;5051946;28;20036;-58
2023/01/30 00:49:42;;;;;;;4.55;3.03;;;;;;;;;;5052218;28;20039;-56
2023/01/30 00:52:07;;;;;;;4.82;2.88;;;;;;;;;;5051979;28;20034;-58
2023/01/30 00:54:34;;;;;;;4.97;2.83;;;;;;;;;;5051475;28;20063;-58
2023/01/30 00:57:00;;;;;;;6.15;3.30;;;;;;;;;;5051636;28;20037;-59
2023/01/30 00:59:26;;;;;;;6.25;3.00;;;;;;;;;;5051452;28;20029;-59
2023/01/30 01:01:52;;;;;;;4.35;3.00;;;;;;;;;;5051101;28;20053;-58
2023/01/30 01:04:18;;;;;;;4.60;2.80;;;;;;;;;;5051144;28;20056;-58
2023/01/30 01:06:44;;;;;;;3.88;2.72;;;;;;;;;;5051706;28;20076;-58
2023/01/30 01:09:10;;;;;;;3.38;2.70;;;;;;;;;;5052123;28;20021;-58
2023/01/30 01:11:36;;;;;;;3.90;2.88;;;;;;;;;;5051198;28;20033;-58
2023/01/30 01:14:03;;;;;;;3.92;2.80;;;;;;;;;;5051460;28;20021;-58
2023/01/30 01:16:30;;;;;;;4.38;2.90;;;;;;;;;;5051032;28;20562;-59
2023/01/30 01:18:56;;;;;;;4.00;2.60;;;;;;;;;;5051144;28;20027;-59
2023/01/30 01:21:22;;;;;;;3.13;1.90;;;;;;;;;;5051093;28;20389;-58
2023/01/30 01:23:54;;;;;;;4.40;2.58;;;;;;;;;;5051269;28;20083;-59
2023/01/30 01:26:21;;;;;;;3.53;2.17;;;;;;;;;;5050952;28;20024;-58
2023/01/30 01:28:47;;;;;;;3.90;2.80;;;;;;;;;;5051168;28;20031;-59
2023/01/30 01:31:14;;;;;;;3.58;2.40;;;;;;;;;;5051314;28;20203;-58
2023/01/30 01:33:40;;;;;;;4.65;3.00;;;;;;;;;;5051394;28;20485;-55
2023/01/30 01:36:07;;;;;;;3.40;2.45;;;;;;;;;;5050965;28;20037;-58
2023/01/30 01:38:33;;;;;;;3.78;2.67;;;;;;;;;;5050832;28;20028;-59
2023/01/30 01:41:03;;;;;;;4.35;2.50;;;;;;;;;;5050991;28;20029;-58
2023/01/30 01:43:31;;;;;;;3.40;1.98;;;;;;;;;;5050659;28;20043;-58
2023/01/30 01:46:02;;;;;;;3.13;2.33;;;;;;;;;;5050711;28;20024;-59
2023/01/30 01:48:31;;;;;;;3.25;2.15;;;;;;;;;;5050643;28;20025;-59
2023/01/30 01:51:00;;;;;;;3.95;2.42;;;;;;;;;;5050894;28;20025;-58
2023/01/30 01:53:28;;;;;;;3.42;2.33;;;;;;;;;;5050654;28;20017;-58
2023/01/30 01:55:56;;;;;;;4.03;2.28;;;;;;;;;;5050662;28;20041;-59
2023/01/30 01:58:28;;;;;;;3.17;2.05;;;;;;;;;;5050488;28;20021;-59
2023/01/30 02:00:56;;;;;;;3.25;2.42;;;;;;;;;;5050899;28;20029;-59
2023/01/30 02:03:24;;;;;;;5.65;2.28;;;;;;;;;;5050507;28;20032;-59
2023/01/30 02:05:51;;;;;;;4.07;2.30;;;;;;;;;;5050562;28;20037;-58
2023/01/30 02:08:19;;;;;;;4.10;2.17;;;;;;;;;;5050414;28;20106;-58
2023/01/30 02:10:52;;;;;;;4.25;2.17;;;;;;;;;;5050639;28;20025;-58
2023/01/30 02:13:18;;;;;;;3.50;2.20;;;;;;;;;;5050958;28;20029;-58
2023/01/30 02:15:44;;;;;;;4.03;2.08;;;;;;;;;;5054979;28;20090;-58
2023/01/30 02:18:11;;;;;;;3.45;2.35;;;;;;;;;;5055036;28;20103;-58
2023/01/30 02:20:56;;;;;;;4.22;2.15;;;;;;;;;;5054337;28;20035;-58
2023/01/30 02:23:45;;;;;;;3.75;2.10;;;;;;;;;;5054215;28;20025;-58
2023/01/30 02:26:20;;;;;;;3.00;1.83;;;;;;;;;;5008998;28;20064;-58
2023/01/30 02:29:05;;;;;;;2.88;1.80;;;;;;;;;;5054574;28;20020;-58
2023/01/30 02:31:49;;;;;;;3.45;2.20;;;;;;;;;;5054183;28;20040;-58
2023/01/30 02:34:15;;;;;;;4.05;2.20;;;;;;;;;;5054340;28;20025;-58
2023/01/30 02:36:53;;;;;;;4.85;1.95;;;;;;;;;;5054635;28;20040;-58
2023/01/30 02:39:26;;;;;;;2.30;1.60;;;;;;;;;;5054228;28;20025;-58
2023/01/30 02:41:55;;;;;;;4.95;1.98;;;;;;;;;;5054335;28;20504;-58
2023/01/30 02:44:24;;;;;;;4.43;2.13;;;;;;;;;;5053968;28;20163;-58
2023/01/30 02:46:52;;;;;;;2.95;1.60;;;;;;;;;;5054178;28;20496;-57
2023/01/30 02:49:22;;;;;;;2.75;1.70;;;;;;;;;;5053901;28;20025;-58
2023/01/30 02:51:49;;;;;;;2.20;1.50;;;;;;;;;;5054054;28;20067;-59
2023/01/30 02:54:15;;;;;;;3.80;1.55;;;;;;;;;;5053875;28;20556;-59
2023/01/30 02:56:51;;;;;;;4.07;1.55;;;;;;;;;;5054044;28;20048;-58
2023/01/30 02:59:20;;;;;;;2.25;1.50;;;;;;;;;;5053676;28;20029;-60
2023/01/30 03:01:56;;;;;;;2.63;1.40;;;;;;;;;;5053913;28;20503;-59
2023/01/30 03:04:31;;;;;;;2.33;1.50;;;;;;;;;;5053714;28;20033;-58
2023/01/30 03:07:16;;;;;;;2.20;1.40;;;;;;;;;;5052881;28;20041;-59
2023/01/30 03:09:53;;;;;;;3.45;1.58;;;;;;;;;;5052889;28;20025;-59
2023/01/30 03:12:37;;;;;;;3.53;1.30;;;;;;;;;;5052393;28;20478;-59
2023/01/30 03:15:09;;;;;;;3.30;1.40;;;;;;;;;;5052462;28;20114;-59
2023/01/30 03:17:36;;;;;;;3.17;1.38;;;;;;;;;;5052065;28;20495;-58
2023/01/30 03:20:02;;;;;;;3.88;1.55;;;;;;;;;;5052364;28;20025;-59
2023/01/30 03:22:28;;;;;;;2.30;1.30;;;;;;;;;;5052112;28;20025;-59
2023/01/30 03:24:54;;;;;;;2.35;1.10;;;;;;;;;;5051899;28;20362;-59
2023/01/30 03:27:21;;;;;;;2.50;1.20;;;;;;;;;;5052030;28;20123;-59
2023/01/30 03:29:47;;;;;;;5.57;1.30;;;;;;;;;;5052225;28;20025;-59
2023/01/30 03:32:13;;;;;;;3.10;1.50;;;;;;;;;;5052411;28;20452;-59
2023/01/30 03:34:39;;;;;;;3.50;1.17;;;;;;;;;;5051977;28;20087;-58
2023/01/30 03:37:05;;;;;;;2.92;1.42;;;;;;;;;;5052112;28;20502;-59
2023/01/30 03:39:31;;;;;;;2.67;1.58;;;;;;;;;;5051960;28;20021;-59
2023/01/30 03:41:57;;;;;;;3.03;1.13;;;;;;;;;;5052030;28;20025;-59
2023/01/30 03:44:23;;;;;;;2.75;1.42;;;;;;;;;;5051769;28;20017;-58
2023/01/30 03:46:49;;;;;;;4.18;1.38;;;;;;;;;;5051897;28;20024;-59
2023/01/30 03:49:15;;;;;;;2.25;1.10;;;;;;;;;;5051896;28;20040;-58
2023/01/30 03:51:41;;;;;;;3.75;1.25;;;;;;;;;;5052140;28;20033;-59
2023/01/30 03:54:07;;;;;;;2.42;1.08;;;;;;;;;;5051983;28;20024;-59
2023/01/30 03:56:33;;;;;;;3.35;1.30;;;;;;;;;;5051524;28;20458;-59
2023/01/30 03:58:59;;;;;;;3.13;1.13;;;;;;;;;;5051793;28;20037;-59
2023/01/30 04:01:25;;;;;;;2.47;1.20;;;;;;;;;;5051372;28;20151;-58
2023/01/30 04:03:51;;;;;;;3.30;1.30;;;;;;;;;;5051529;28;20358;-59
2023/01/30 04:06:17;;;;;;;2.38;1.20;;;;;;;;;;5006859;28;1283928;-59
2023/01/30 04:08:43;;;;;;;2.50;1.20;;;;;;;;;;5053039;28;20032;-58
2023/01/30 04:11:09;;;;;;;2.45;1.23;;;;;;;;;;5052623;28;20036;-58
2023/01/30 04:13:35;;;;;;;2.42;1.17;;;;;;;;;;5052293;28;20394;-59
2023/01/30 04:16:18;;;;;;;2.85;1.05;;;;;;;;;;5052372;28;20039;-60
2023/01/30 04:18:44;;;;;;;2.83;1.17;;;;;;;;;;5052686;28;20029;-59
2023/01/30 04:21:10;;;;;;;4.10;1.38;;;;;;;;;;5052805;28;20393;-59
2023/01/30 04:23:36;;;;;;;2.65;0.98;;;;;;;;;;5052010;28;20029;-58
2023/01/30 04:26:02;;;;;;;2.63;1.25;;;;;;;;;;5050755;28;20029;-59
2023/01/30 04:28:28;;;;;;;3.20;1.25;;;;;;;;;;5051917;28;20104;-59
2023/01/30 04:30:54;;;;;;;1.90;0.93;;;;;;;;;;5052190;28;20103;-59
2023/01/30 04:33:20;;;;;;;3.65;1.20;;;;;;;;;;5051873;28;20100;-59
2023/01/30 04:35:53;;;;;;;1.95;0.98;;;;;;;;;;5051542;28;20075;-59
2023/01/30 04:38:19;;;;;;;2.65;1.05;;;;;;;;;;5051591;28;20063;-59
2023/01/30 04:40:52;;;;;;;3.45;1.20;;;;;;;;;;5051914;28;20021;-58
2023/01/30 04:43:19;;;;;;;2.17;1.00;;;;;;;;;;5051586;28;20028;-59
2023/01/30 04:45:46;;;;;;;3.50;0.88;;;;;;;;;;5052073;28;20374;-59
2023/01/30 04:48:12;;;;;;;2.42;1.02;;;;;;;;;;5052053;28;20036;-59
2023/01/30 04:50:39;;;;;;;3.13;0.93;;;;;;;;;;5051782;28;20025;-59
2023/01/30 04:53:05;;;;;;;2.88;1.00;;;;;;;;;;5051627;28;20362;-58
2023/01/30 04:55:31;;;;;;;2.22;0.80;;;;;;;;;;5051350;28;20032;-58
2023/01/30 04:57:57;;;;;;;1.73;0.77;;;;;;;;;;5051609;28;20520;-59
2023/01/30 05:00:23;;;;;;;2.67;1.00;;;;;;;;;;5051384;28;20021;-59
2023/01/30 05:02:49;;;;;;;2.63;1.08;;;;;;;;;;5051597;28;20025;-59
2023/01/30 05:05:15;;;;;;;3.95;1.02;;;;;;;;;;5051554;28;20014;-59
2023/01/30 05:07:41;;;;;;;2.55;1.00;;;;;;;;;;5051637;28;20163;-59
2023/01/30 05:10:07;;;;;;;1.67;0.75;;;;;;;;;;5051419;28;20366;-59
2023/01/30 05:12:33;;;;;;;3.13;0.88;;;;;;;;;;5051094;28;20032;-60
2023/01/30 05:15:00;;;;;;;3.65;1.33;;;;;;;;;;5051549;28;20032;-59
2023/01/30 05:17:26;;;;;;;1.10;0.60;;;;;;;;;;5051057;28;20036;-60
2023/01/30 05:19:52;;;;;;;2.92;1.00;;;;;;;;;;5051295;28;20021;-60
2023/01/30 05:22:18;;;;;;;2.88;0.90;;;;;;;;;;5051024;28;20032;-59
2023/01/30 05:24:44;;;;;;;2.13;0.82;;;;;;;;;;5051459;28;20436;-59
2023/01/30 05:27:10;;;;;;;2.55;0.75;;;;;;;;;;5051194;28;20071;-60
2023/01/30 05:29:36;;;;;;;1.98;0.73;;;;;;;;;;5050850;28;20448;-60
2023/01/30 05:32:03;;;;;;;3.10;1.10;;;;;;;;;;5051046;28;20025;-60
2023/01/30 05:34:29;;;;;;;1.70;1.00;;;;;;;;;;5050801;28;20079;-59
2023/01/30 05:36:55;;;;;;;2.10;0.80;;;;;;;;;;5051011;28;20033;-59
2023/01/30 05:39:21;;;;;;;2.20;1.08;;;;;;;;;;5050715;28;20527;-59
2023/01/30 05:41:47;;;;;;;2.20;1.05;;;;;;;;;;5050972;28;20033;-59
2023/01/30 05:44:13;;;;;;;3.45;0.80;;;;;;;;;;5050941;28;20036;-60
2023/01/30 05:46:39;;;;;;;3.55;1.00;;;;;;;;;;5050911;28;20060;-59
2023/01/30 05:49:06;;;;;;;2.33;0.90;;;;;;;;;;5050765;28;20112;-60
2023/01/30 05:51:32;;;;;;;2.50;0.75;;;;;;;;;;5050404;28;20025;-59
2023/01/30 05:53:58;;;;;;;1.40;0.73;;;;;;;;;;5050849;28;20524;-59
2023/01/30 05:56:24;;;;;;;2.70;0.82;;;;;;;;;;5050516;28;20033;-59
2023/01/30 05:58:54;;;;;;;2.35;1.02;;;;;;;;;;5050900;28;20021;-59
2023/01/30 06:01:21;;;;;;;1.92;0.90;;;;;;;;;;5050616;28;20024;-59
2023/01/30 06:03:47;;;;;;;3.83;1.17;;;;;;;;;;5051250;28;20024;-58
2023/01/30 06:06:13;;;;;;;4.00;0.82;;;;;;;;;;5050781;28;20044;-58
2023/01/30 06:08:39;;;;;;;1.92;1.10;;;;;;;;;;5050874;28;20025;-59
2023/01/30 06:11:09;;;;;;;3.50;1.00;;;;;;;;;;5049774;28;20208;-57
2023/01/30 06:13:35;;;;;;;1.33;0.80;;;;;;;;;;5050737;28;20104;-59
2023/01/30 06:16:01;;;;;;;2.55;0.80;;;;;;;;;;5050346;28;20537;-55
2023/01/30 06:18:27;;;;;;;2.72;0.68;;;;;;;;;;5050127;28;20112;-54
2023/01/30 06:20:54;;;;;;;1.95;0.77;;;;;;;;;;5049890;28;20025;-60
2023/01/30 06:23:22;;;;;;;3.15;0.90;;;;;;;;;;5050542;28;20112;-57
2023/01/30 06:25:48;;;;;;;2.28;0.70;;;;;;;;;;5050328;28;20033;-60
2023/01/30 06:28:15;;;;;;;1.88;0.68;;;;;;;;;;5033614;28;20052;-59
2023/01/30 06:30:41;;;;;;;2.22;0.80;;;;;;;;;;5030798;28;20036;-60
2023/01/30 06:33:07;;;;;;;4.72;0.98;;;;;;;;;;5040368;28;20166;-60
2023/01/30 06:35:33;;;;;;;2.72;1.00;;;;;;;;;;5049887;28;20095;-60
2023/01/30 06:37:59;;;;;;;2.97;0.98;;;;;;;;;;5050609;28;20059;-60
2023/01/30 06:40:25;;;;;;;1.73;0.60;;;;;;;;;;5050458;28;20028;-60
2023/01/30 06:42:51;;;;;;;2.90;0.80;;;;;;;;;;5049277;28;20033;-59
2023/01/30 06:45:18;;;;;;;7.68;1.35;;;;;;;;;;5049507;28;20290;-60
2023/01/30 06:47:54;;;;;;;4.43;1.13;;;;;;;;;;5049156;28;20039;-63
2023/01/30 06:50:20;;;;;;;;;;;;;;;;;;5050389;28;20397;-59
2023/01/30 06:52:47;;;;;;;1.77;0.70;;;;;;;;;;5050772;28;19951;-59
2023/01/30 06:55:14;;;;;;;2.78;0.80;;;;;;;;;;5050386;28;20033;-59
2023/01/30 06:57:40;;;;;;;4.10;1.15;;;;;;;;;;5050354;28;20117;-63
2023/01/30 07:00:07;;;;;;;5.30;3.15;;;;;;;;;;5052094;28;20358;-64
2023/01/30 07:02:34;;;;;;;12.82;7.28;;;;;;;;;;5053518;28;20037;-64
2023/01/30 07:05:03;;;;;;;14.60;9.98;;;;;;;;;;5053832;28;20025;-59
2023/01/30 07:07:30;;;;;;;17.08;11.60;;;;;;;;;;5053510;28;20040;-59
2023/01/30 07:09:56;;;;;;;18.50;12.48;;;;;;;;;;5053913;28;20097;-60
2023/01/30 07:12:23;;;;;;;22.25;13.75;;;;;;;;;;5053128;28;20532;-59
2023/01/30 07:14:49;;;;;;;21.30;13.20;;;;;;;;;;5051540;28;20037;-60
2023/01/30 07:17:16;;;;;;;20.83;11.88;;;;;;;;;;5053094;28;20382;-59
2023/01/30 07:19:42;;;;;;;23.23;13.40;;;;;;;;;;5053198;28;20072;-64
2023/01/30 07:22:08;;;;;;;22.13;13.02;;;;;;;;;;5053797;28;20032;-60
2023/01/30 07:24:34;;;;;;;26.50;13.40;;;;;;;;;;5053420;28;20025;-60
2023/01/30 07:27:00;;;;;;;24.95;13.15;;;;;;;;;;5053418;28;20389;-63
2023/01/30 07:29:26;;;;;;;19.88;12.02;;;;;;;;;;5053211;28;20055;-64
2023/01/30 07:31:52;;;;;;;18.70;11.63;;;;;;;;;;5053326;28;20025;-62
2023/01/30 07:34:18;;;;;;;19.77;11.77;;;;;;;;;;5052799;28;20431;-60
2023/01/30 07:36:44;;;;;;;17.30;11.10;;;;;;;;;;5052402;28;20112;-60
2023/01/30 07:39:10;;;;;;;19.20;11.20;;;;;;;;;;5053233;28;20021;-60
2023/01/30 07:41:36;;;;;;;16.38;10.75;;;;;;;;;;5052696;28;20024;-60
2023/01/30 07:44:02;;;;;;;16.45;11.43;;;;;;;;;;5052627;28;20025;-60
2023/01/30 07:46:33;;;;;;;14.05;10.02;;;;;;;;;;5052410;28;20037;-61
2023/01/30 07:49:03;;;;;;;19.15;11.00;;;;;;;;;;5052381;28;20067;-60
2023/01/30 07:51:29;;;;;;;16.50;9.68;;;;;;;;;;5052026;28;20059;-60
2023/01/30 07:53:54;;;;;;;19.05;10.07;;;;;;;;;;5052405;28;20484;-63
2023/01/30 07:56:20;;;;;;;19.25;10.90;;;;;;;;;;5052281;28;20083;-63
2023/01/30 07:58:47;;;;;;;19.30;10.43;;;;;;;;;;5052510;28;20500;-63
2023/01/30 08:01:13;;;;;;;15.95;9.73;;;;;;;;;;5052917;28;20082;-63
2023/01/30 08:03:39;;;;;;;21.77;9.80;;;;;;;;;;5053021;28;20032;-60
2023/01/30 08:06:05;;;;;;;15.00;9.15;;;;;;;;;;5052619;28;20055;-61
2023/01/30 08:08:31;;;;;;;17.60;9.70;;;;;;;;;;5052567;28;20477;-64
2023/01/30 08:10:57;;;;;;;17.13;9.18;;;;;;;;;;5051737;28;20033;-64
2023/01/30 08:13:23;;;;;;;15.65;8.93;;;;;;;;;;5052368;28;20032;-60
2023/01/30 08:15:49;;;;;;;13.75;8.60;;;;;;;;;;5052808;28;20040;-60
2023/01/30 08:18:15;;;;;;;12.98;8.57;;;;;;;;;;5052459;28;20397;-60
2023/01/30 08:20:41;;;;;;;17.23;8.75;;;;;;;;;;5052646;28;20087;-63
2023/01/30 08:23:07;;;;;;;19.45;8.02;;;;;;;;;;5052560;28;20028;-60
2023/01/30 08:25:34;;;;;;;14.48;7.57;;;;;;;;;;5052258;28;20100;-63
2023/01/30 08:28:01;;;;;;;16.45;8.82;;;;;;;;;;5052311;28;20033;-62
2023/01/30 08:30:27;;;;;;;17.75;8.27;;;;;;;;;;5052172;28;20024;-61
2023/01/30 08:32:53;;;;;;;13.80;7.63;;;;;;;;;;5052366;28;20049;-59
2023/01/30 08:35:19;;;;;;;13.07;8.50;;;;;;;;;;5052241;28;20056;-60
2023/01/30 08:37:45;;;;;;;11.85;7.63;;;;;;;;;;5052240;28;20031;-60
2023/01/30 08:40:11;;;;;;;13.05;7.40;;;;;;;;;;5052252;28;20025;-60
2023/01/30 08:42:37;;;;;;;14.13;7.18;;;;;;;;;;5051784;28;20029;-60
2023/01/30 08:45:04;;;;;;;13.48;7.60;;;;;;;;;;5052208;28;20017;-60
2023/01/30 08:47:30;;;;;;;13.93;7.30;;;;;;;;;;5051783;28;20033;-62
2023/01/30 08:49:56;;;;;;;13.05;7.47;;;;;;;;;;5052071;28;20021;-62
2023/01/30 08:52:22;;;;;;;12.75;7.28;;;;;;;;;;5052036;28;20032;-61
2023/01/30 08:54:48;;;;;;;13.05;7.82;;;;;;;;;;5051977;28;20033;-60
2023/01/30 08:57:15;;;;;;;16.30;6.93;;;;;;;;;;5051543;28;20041;-63
2023/01/30 08:59:41;;;;;;;10.93;7.10;;;;;;;;;;5051879;28;20025;-62
2023/01/30 09:02:09;;;;;;;13.48;6.47;;;;;;;;;;5051836;28;20056;-60
2023/01/30 09:04:35;;;;;;;15.00;7.10;;;;;;;;;;5051442;28;20807;-60
2023/01/30 09:07:01;;;;;;;12.85;6.93;;;;;;;;;;5051599;28;20119;-62
2023/01/30 09:09:28;;;;;;;12.55;6.30;;;;;;;;;;5051341;28;20109;-60
2023/01/30 09:11:54;;;;;;;13.45;6.60;;;;;;;;;;5051697;28;20031;-60
2023/01/30 09:14:20;;;;;;;12.27;6.43;;;;;;;;;;5051678;28;20100;-63
2023/01/30 09:16:47;;;;;;;9.35;5.65;;;;;;;;;;5051482;28;20374;-62
2023/01/30 09:19:13;;;;;;;10.70;5.97;;;;;;;;;;5051545;28;20434;-60
2023/01/30 09:21:39;;;;;;;8.73;5.88;;;;;;;;;;5051469;28;20059;-61
2023/01/30 09:24:05;;;;;;;10.70;6.68;;;;;;;;;;5051091;28;20021;-62
2023/01/30 09:26:31;;;;;;;10.68;6.32;;;;;;;;;;5051200;28;20021;-60
2023/01/30 09:28:57;;;;;;;10.63;5.53;;;;;;;;;;5051373;28;20393;-60
2023/01/30 09:31:23;;;;;;;7.35;4.70;;;;;;;;;;5051493;28;20049;-60
2023/01/30 09:33:49;;;;;;;11.13;5.25;;;;;;;;;;5051338;28;20025;-60
2023/01/30 09:36:15;;;;;;;10.73;5.35;;;;;;;;;;5050964;28;20036;-62
2023/01/30 09:38:41;;;;;;;11.85;6.28;;;;;;;;;;5051251;28;20059;-61
2023/01/30 09:41:22;;;;;;;6.90;4.75;;;;;;;;;;5051151;28;20471;-61
2023/01/30 09:44:03;;;;;;;9.18;5.15;;;;;;;;;;5051119;28;20040;-59
2023/01/30 09:46:35;;;;;;;9.95;5.43;;;;;;;;;;5050839;28;20021;-60
2023/01/30 09:49:19;;;;;;;7.25;4.50;;;;;;;;;;5051089;28;20036;-60
2023/01/30 09:52:03;;;;;;;9.73;5.07;;;;;;;;;;5051184;28;20055;-60
2023/01/30 09:54:30;;;;;;;9.85;5.00;;;;;;;;;;5050738;28;20096;-60
2023/01/30 09:57:01;;;;;;;9.07;4.22;;;;;;;;;;5050895;28;20547;-60
2023/01/30 09:59:34;;;;;;;8.77;5.00;;;;;;;;;;5050624;28;20029;-61
2023/01/30 10:02:08;;;;;;;10.07;4.97;;;;;;;;;;5050980;28;20512;-63
2023/01/30 10:04:34;;;;;;;7.90;4.30;;;;;;;;;;5050766;28;20385;-63
2023/01/30 10:07:09;;;;;;;7.32;4.30;;;;;;;;;;5050796;28;20029;-60
2023/01/30 10:09:50;;;;;;;11.30;6.15;;;;;;;;;;5050574;28;20375;-62
2023/01/30 10:12:26;;;;;;;8.95;4.70;;;;;;;;;;5050618;28;20021;-60
2023/01/30 10:15:00;;;;;;;8.55;4.57;;;;;;;;;;5051181;28;20029;-60
2023/01/30 10:17:35;;;;;;;10.57;4.65;;;;;;;;;;5050662;28;20037;-60
2023/01/30 10:20:20;;;;;;;9.18;4.22;;;;;;;;;;5050823;28;20032;-60
2023/01/30 10:22:57;;;;;;;8.85;3.90;;;;;;;;;;5050832;28;20033;-61
2023/01/30 10:25:26;;;;;;;7.93;3.60;;;;;;;;;;5050911;28;20033;-62
2023/01/30 10:28:11;;;;;;;7.63;3.75;;;;;;;;;;5050960;28;20392;-60
2023/01/30 10:30:37;;;;;;;7.30;3.95;;;;;;;;;;5050460;28;20029;-60
2023/01/30 10:33:05;;;;;;;7.22;3.85;;;;;;;;;;5050617;28;20025;-61
2023/01/30 10:35:36;;;;;;;8.07;3.95;;;;;;;;;;5052803;28;20033;-61
2023/01/30 10:38:02;;;;;;;7.18;3.70;;;;;;;;;;5054673;28;20029;-63
2023/01/30 10:40:51;;;;;;;6.47;3.38;;;;;;;;;;5054257;28;20025;-60
2023/01/30 10:43:30;;;;;;;5.38;3.00;;;;;;;;;;5054222;28;20637;-61
2023/01/30 10:46:05;;;;;;;7.47;3.97;;;;;;;;;;5054842;28;20031;-61
2023/01/30 10:48:49;;;;;;;7.40;3.58;;;;;;;;;;5054109;28;20644;-61
2023/01/30 10:51:53;;;;;;;7.28;3.35;;;;;;;;;;5054019;28;20099;-63
2023/01/30 10:54:19;;;;;;;6.32;3.00;;;;;;;;;;4953612;29;20505;-61
2023/01/30 10:57:03;;;;;;;6.18;2.60;;;;;;;;;;4954027;29;20038;-63
2023/01/30 10:59:48;;;;;;;7.18;3.38;;;;;;;;;;5013141;28;20040;-60
2023/01/30 11:02:24;;;;;;;6.53;3.55;;;;;;;;;;5053906;28;20029;-60
2023/01/30 11:04:58;;;;;;;4.60;3.03;;;;;;;;;;5054140;28;20043;-60
2023/01/30 11:07:24;;;;;;;9.02;3.50;;;;;;;;;;5053849;28;20112;-60
2023/01/30 11:09:50;;;;;;;7.57;3.47;;;;;;;;;;5053981;28;20103;-61
2023/01/30 11:12:16;;;;;;;6.30;3.55;;;;;;;;;;5053663;28;20098;-63
2023/01/30 11:14:52;;;;;;;7.53;3.17;;;;;;;;;;5053897;28;20079;-60
2023/01/30 11:17:18;;;;;;;7.13;3.03;;;;;;;;;;5053671;28;20083;-61
2023/01/30 11:19:44;;;;;;;6.88;3.03;;;;;;;;;;5053648;28;20385;-64
2023/01/30 11:22:12;;;;;;;5.05;2.55;;;;;;;;;;5053530;28;20025;-63
2023/01/30 11:24:40;;;;;;;5.38;2.40;;;;;;;;;;5053769;28;20492;-62
2023/01/30 11:27:11;;;;;;;6.63;3.03;;;;;;;;;;5053600;28;20505;-63
2023/01/30 11:29:40;;;;;;;6.50;2.78;;;;;;;;;;5053474;28;20515;-63
2023/01/30 11:32:11;;;;;;;6.95;3.00;;;;;;;;;;5053625;28;20052;-60
2023/01/30 11:34:37;;;;;;;5.28;2.25;;;;;;;;;;5053230;28;20500;-62
2023/01/30 11:37:13;;;;;;;4.90;2.30;;;;;;;;;;5053469;28;20120;-60
2023/01/30 11:39:47;;;;;;;5.30;2.53;;;;;;;;;;5053350;28;20029;-60
2023/01/30 11:42:13;;;;;;;7.07;2.63;;;;;;;;;;5053446;28;20029;-60
2023/01/30 11:44:41;;;;;;;5.28;2.28;;;;;;;;;;5053399;28;20096;-60
2023/01/30 11:47:08;;;;;;;6.28;2.80;;;;;;;;;;5052979;28;20031;-61
2023/01/30 11:49:47;;;;;;;5.35;2.22;;;;;;;;;;5053026;28;20051;-60
2023/01/30 11:52:16;;;;;;;5.68;2.40;;;;;;;;;;5052786;28;20086;-60
2023/01/30 11:54:44;;;;;;;7.93;2.85;;;;;;;;;;5053030;28;20078;-60
2023/01/30 11:57:11;;;;;;;5.20;2.75;;;;;;;;;;5035065;28;20037;-60
2023/01/30 11:59:43;;;;;;;5.95;2.53;;;;;;;;;;5052862;28;20036;-63
2023/01/30 12:02:26;;;;;;;8.68;3.33;;;;;;;;;;5053034;28;20027;-62
2023/01/30 12:04:55;;;;;;;6.20;2.88;;;;;;;;;;5052966;28;20060;-61
2023/01/30 12:07:28;;;;;;;5.60;2.47;;;;;;;;;;5052511;28;20112;-60
2023/01/30 12:09:55;;;;;;;8.05;2.53;;;;;;;;;;5052889;28;20021;-60
2023/01/30 12:12:27;;;;;;;4.22;1.90;;;;;;;;;;5052680;28;20441;-59
2023/01/30 12:14:57;;;;;;;6.15;2.65;;;;;;;;;;5052676;28;20547;-59
2023/01/30 12:17:29;;;;;;;5.18;2.58;;;;;;;;;;5052420;28;20029;-60
2023/01/30 12:20:05;;;;;;;5.45;2.15;;;;;;;;;;5052833;28;20028;-63
2023/01/30 12:22:41;;;;;;;6.53;2.28;;;;;;;;;;5052872;28;20056;-63
2023/01/30 12:25:13;;;;;;;7.25;2.60;;;;;;;;;;5052615;28;20055;-64
2023/01/30 12:27:58;;;;;;;5.90;2.80;;;;;;;;;;5052533;28;20481;-60
2023/01/30 12:30:29;;;;;;;5.70;2.55;;;;;;;;;;5052118;28;20481;-63
2023/01/30 12:32:59;;;;;;;7.47;2.33;;;;;;;;;;5052225;28;20059;-60
2023/01/30 12:35:30;;;;;;;5.55;2.60;;;;;;;;;;5052131;28;20079;-60
2023/01/30 12:37:56;;;;;;;4.13;1.73;;;;;;;;;;5052350;28;20064;-60
2023/01/30 12:40:31;;;;;;;7.28;2.63;;;;;;;;;;5051961;28;20469;-60
2023/01/30 12:42:57;;;;;;;6.00;2.03;;;;;;;;;;5052422;28;20392;-60
2023/01/30 12:45:24;;;;;;;3.63;2.03;;;;;;;;;;5052040;28;20029;-59
2023/01/30 12:48:02;;;;;;;4.00;1.73;;;;;;;;;;5051937;28;20025;-61
2023/01/30 12:50:37;;;;;;;6.30;2.40;;;;;;;;;;5052043;28;20037;-63
2023/01/30 12:53:09;;;;;;;5.75;2.22;;;;;;;;;;5052231;28;20030;-60
2023/01/30 12:55:39;;;;;;;6.00;2.08;;;;;;;;;;5051637;28;20385;-63
2023/01/30 12:58:05;;;;;;;6.50;1.80;;;;;;;;;;5051367;28;20067;-60
2023/01/30 13:00:45;;;;;;;5.53;1.77;;;;;;;;;;5052024;28;20060;-59
2023/01/30 13:03:23;;;;;;;4.53;1.52;;;;;;;;;;5051938;28;20029;-60
2023/01/30 13:05:49;;;;;;;5.97;2.08;;;;;;;;;;5051781;28;20572;-60
2023/01/30 13:08:21;;;;;;;5.00;1.85;;;;;;;;;;5051571;28;20109;-62
2023/01/30 13:11:06;;;;;;;4.97;2.10;;;;;;;;;;5051612;28;20028;-60
2023/01/30 13:13:39;;;;;;;4.75;1.75;;;;;;;;;;5051683;28;20029;-64
2023/01/30 13:16:14;;;;;;;6.30;2.50;;;;;;;;;;5051264;28;20037;-59
2023/01/30 13:18:40;;;;;;;5.03;1.67;;;;;;;;;;5051627;28;20436;-63
2023/01/30 13:21:08;;;;;;;6.25;2.25;;;;;;;;;;5051493;28;20025;-62
2023/01/30 13:23:53;;;;;;;4.07;1.70;;;;;;;;;;5051546;28;20388;-63
2023/01/30 13:26:22;;;;;;;4.25;1.75;;;;;;;;;;5051265;28;20100;-60
2023/01/30 13:28:50;;;;;;;5.20;1.92;;;;;;;;;;5051474;28;20052;-60
2023/01/30 13:31:20;;;;;;;6.38;1.95;;;;;;;;;;5051431;28;20441;-62
2023/01/30 13:33:47;;;;;;;4.90;2.00;;;;;;;;;;5051369;28;20036;-60
2023/01/30 13:36:36;;;;;;;4.63;1.80;;;;;;;;;;5050934;28;20037;-60
2023/01/30 13:39:16;;;;;;;6.28;1.67;;;;;;;;;;5005829;28;20090;-60
2023/01/30 13:41:45;;;;;;;5.38;1.80;;;;;;;;;;5051379;28;20021;-60
2023/01/30 13:44:21;;;;;;;4.38;1.48;;;;;;;;;;5051189;28;20063;-63
2023/01/30 13:46:48;;;;;;;3.95;1.67;;;;;;;;;;5050996;28;20032;-60
2023/01/30 13:49:32;;;;;;;7.10;1.60;;;;;;;;;;5050946;28;20025;-60
2023/01/30 13:52:07;;;;;;;4.75;1.70;;;;;;;;;;5051155;28;20057;-60
2023/01/30 13:54:39;;;;;;;4.00;2.00;;;;;;;;;;5051106;28;20505;-60
2023/01/30 13:57:16;;;;;;;5.88;2.00;;;;;;;;;;5051322;28;20091;-60
2023/01/30 14:00:02;;;;;;;7.05;1.83;;;;;;;;;;5051089;28;20021;-59
2023/01/30 14:02:28;;;;;;;5.97;1.95;;;;;;;;;;5000636;28;20551;-60
2023/01/30 14:04:55;;;;;;;6.90;1.50;;;;;;;;;;5050982;28;20025;-60
2023/01/30 14:07:21;;;;;;;6.07;1.42;;;;;;;;;;5050543;28;20090;-59
2023/01/30 14:09:50;;;;;;;5.55;1.70;;;;;;;;;;5053839;28;20033;-62
2023/01/30 14:12:22;;;;;;;4.20;1.35;;;;;;;;;;5054931;28;20374;-60
2023/01/30 14:15:03;;;;;;;5.63;1.55;;;;;;;;;;5055149;28;20537;-60
2023/01/30 14:17:29;;;;;;;3.53;1.80;;;;;;;;;;5054629;28;20037;-61
2023/01/30 14:19:59;;;;;;;3.22;1.45;;;;;;;;;;5054881;28;20110;-60
2023/01/30 14:22:28;;;;;;;4.07;1.42;;;;;;;;;;5054747;28;20029;-60
2023/01/30 14:25:13;;;;;;;6.20;1.95;;;;;;;;;;5054906;28;20053;-63
2023/01/30 14:27:38;;;;;;;2.95;1.27;;;;;;;;;;5054783;28;20028;-60
2023/01/30 14:30:34;;;;;;;7.45;1.67;;;;;;;;;;5055131;28;20458;-60
2023/01/30 14:33:01;;;;;;;4.70;1.90;;;;;;;;;;5033478;28;20026;-63
2023/01/30 14:35:29;;;;;;;4.30;1.50;;;;;;;;;;5054501;28;20444;-60
2023/01/30 14:38:04;;;;;;;3.72;1.45;;;;;;;;;;5054583;28;20033;-60
2023/01/30 14:40:32;;;;;;;5.82;2.00;;;;;;;;;;5054226;28;20493;-60
2023/01/30 14:43:14;;;;;;;5.25;1.60;;;;;;;;;;5054402;28;20079;-60
2023/01/30 14:45:50;;;;;;;4.43;1.40;;;;;;;;;;5054589;28;20037;-60
2023/01/30 14:48:23;;;;;;;5.85;1.65;;;;;;;;;;5054150;28;20023;-63
2023/01/30 14:50:49;;;;;;;6.18;1.75;;;;;;;;;;5054409;28;20520;-61
2023/01/30 14:53:24;;;;;;;4.07;1.55;;;;;;;;;;5053912;28;20330;-60
2023/01/30 14:55:58;;;;;;;4.70;1.83;;;;;;;;;;5054194;28;20025;-60
2023/01/30 14:58:24;;;;;;;6.57;1.90;;;;;;;;;;5054058;28;20091;-60